sensor_id;sensor_type;location;lat;lon;timestamp;P1;durP1;ratioP1;P2;durP2;ratioP2
16346;SDS011;8283;48.504;13.734;2024-01-07T00:00:03;2.72;;;2.00;;
16346;SDS011;8283;48.504;13.734;2024-01-07T00:02:23;3.58;;;1.85;;
16346;SDS011;8283;48.504;13.734;2024-01-07T00:04:42;2.35;;;1.88;;
16346;SDS011;8283;48.504;13.734;2024-01-07T00:07:02;2.30;;;1.85;;
16346;SDS011;8283;48.504;13.734;2024-01-07T00:09:22;2.30;;;1.60;;
16346;SDS011;8283;48.504;13.734;2024-01-07T00:11:41;1.85;;;1.65;;
16346;SDS011;8283;48.504;13.734;2024-01-07T00:14:01;2.45;;;1.85;;
16346;SDS011;8283;48.504;13.734;2024-01-07T00:16:20;2.63;;;1.98;;
16346;SDS011;8283;48.504;13.734;2024-01-07T00:18:40;2.78;;;2.20;;
16346;SDS011;8283;48.504;13.734;2024-01-07T00:20:59;2.70;;;1.98;;
16346;SDS011;8283;48.504;13.734;2024-01-07T00:23:19;2.35;;;1.60;;
16346;SDS011;8283;48.504;13.734;2024-01-07T00:25:39;1.40;;;1.30;;
16346;SDS011;8283;48.504;13.734;2024-01-07T00:27:58;2.40;;;1.45;;
16346;SDS011;8283;48.504;13.734;2024-01-07T00:30:18;2.63;;;1.83;;
16346;SDS011;8283;48.504;13.734;2024-01-07T00:32:38;2.00;;;1.57;;
16346;SDS011;8283;48.504;13.734;2024-01-07T00:34:58;1.80;;;1.33;;
16346;SDS011;8283;48.504;13.734;2024-01-07T00:37:17;2.92;;;1.77;;
16346;SDS011;8283;48.504;13.734;2024-01-07T00:39:36;2.53;;;1.55;;
16346;SDS011;8283;48.504;13.734;2024-01-07T00:41:56;1.95;;;1.63;;
16346;SDS011;8283;48.504;13.734;2024-01-07T00:44:15;2.63;;;1.80;;
16346;SDS011;8283;48.504;13.734;2024-01-07T00:46:34;2.53;;;1.80;;
16346;SDS011;8283;48.504;13.734;2024-01-07T00:48:54;2.35;;;1.83;;
16346;SDS011;8283;48.504;13.734;2024-01-07T00:51:13;2.22;;;1.67;;
16346;SDS011;8283;48.504;13.734;2024-01-07T00:53:32;2.60;;;1.85;;
16346;SDS011;8283;48.504;13.734;2024-01-07T00:55:52;2.63;;;1.90;;
16346;SDS011;8283;48.504;13.734;2024-01-07T00:58:11;4.57;;;2.63;;
16346;SDS011;8283;48.504;13.734;2024-01-07T01:00:30;3.83;;;2.47;;
16346;SDS011;8283;48.504;13.734;2024-01-07T01:02:49;3.20;;;2.20;;
16346;SDS011;8283;48.504;13.734;2024-01-07T01:05:09;3.10;;;2.42;;
16346;SDS011;8283;48.504;13.734;2024-01-07T01:07:28;3.88;;;2.75;;
16346;SDS011;8283;48.504;13.734;2024-01-07T01:09:48;3.22;;;1.98;;
16346;SDS011;8283;48.504;13.734;2024-01-07T01:12:07;2.05;;;1.55;;
16346;SDS011;8283;48.504;13.734;2024-01-07T01:14:27;2.03;;;1.70;;
16346;SDS011;8283;48.504;13.734;2024-01-07T01:16:46;2.58;;;1.95;;
16346;SDS011;8283;48.504;13.734;2024-01-07T01:19:05;4.13;;;2.03;;
16346;SDS011;8283;48.504;13.734;2024-01-07T01:21:25;1.95;;;1.52;;
16346;SDS011;8283;48.504;13.734;2024-01-07T01:23:44;1.95;;;1.70;;
16346;SDS011;8283;48.504;13.734;2024-01-07T01:26:04;2.90;;;1.80;;
16346;SDS011;8283;48.504;13.734;2024-01-07T01:28:24;3.25;;;2.05;;
16346;SDS011;8283;48.504;13.734;2024-01-07T01:30:43;2.78;;;1.88;;
16346;SDS011;8283;48.504;13.734;2024-01-07T01:33:02;2.35;;;1.75;;
16346;SDS011;8283;48.504;13.734;2024-01-07T01:35:22;3.22;;;2.00;;
16346;SDS011;8283;48.504;13.734;2024-01-07T01:37:42;2.83;;;2.03;;
16346;SDS011;8283;48.504;13.734;2024-01-07T01:40:02;2.97;;;2.25;;
16346;SDS011;8283;48.504;13.734;2024-01-07T01:42:22;5.13;;;1.95;;
16346;SDS011;8283;48.504;13.734;2024-01-07T01:44:42;3.50;;;2.33;;
16346;SDS011;8283;48.504;13.734;2024-01-07T01:47:01;2.85;;;1.88;;
16346;SDS011;8283;48.504;13.734;2024-01-07T01:49:21;2.05;;;1.60;;
16346;SDS011;8283;48.504;13.734;2024-01-07T01:51:40;4.32;;;2.55;;
16346;SDS011;8283;48.504;13.734;2024-01-07T01:54:00;3.40;;;2.30;;
16346;SDS011;8283;48.504;13.734;2024-01-07T01:56:21;5.20;;;2.40;;
16346;SDS011;8283;48.504;13.734;2024-01-07T01:58:41;4.20;;;2.37;;
16346;SDS011;8283;48.504;13.734;2024-01-07T02:01:01;3.00;;;2.20;;
16346;SDS011;8283;48.504;13.734;2024-01-07T02:03:22;2.97;;;2.10;;
16346;SDS011;8283;48.504;13.734;2024-01-07T02:05:41;3.25;;;2.20;;
16346;SDS011;8283;48.504;13.734;2024-01-07T02:08:00;3.65;;;2.58;;
16346;SDS011;8283;48.504;13.734;2024-01-07T02:10:21;2.63;;;2.25;;
16346;SDS011;8283;48.504;13.734;2024-01-07T02:12:41;3.78;;;2.55;;
16346;SDS011;8283;48.504;13.734;2024-01-07T02:15:00;2.80;;;2.13;;
16346;SDS011;8283;48.504;13.734;2024-01-07T02:17:20;3.80;;;2.20;;
16346;SDS011;8283;48.504;13.734;2024-01-07T02:19:40;3.22;;;2.35;;
16346;SDS011;8283;48.504;13.734;2024-01-07T02:22:00;3.80;;;2.38;;
16346;SDS011;8283;48.504;13.734;2024-01-07T02:24:19;2.50;;;2.13;;
16346;SDS011;8283;48.504;13.734;2024-01-07T02:26:39;2.90;;;1.92;;
16346;SDS011;8283;48.504;13.734;2024-01-07T02:28:59;2.88;;;2.10;;
16346;SDS011;8283;48.504;13.734;2024-01-07T02:31:18;2.33;;;1.80;;
16346;SDS011;8283;48.504;13.734;2024-01-07T02:33:37;2.78;;;2.13;;
16346;SDS011;8283;48.504;13.734;2024-01-07T02:35:57;4.50;;;2.15;;
16346;SDS011;8283;48.504;13.734;2024-01-07T02:38:16;3.08;;;2.08;;
16346;SDS011;8283;48.504;13.734;2024-01-07T02:40:35;3.15;;;2.13;;
16346;SDS011;8283;48.504;13.734;2024-01-07T02:42:55;2.88;;;1.90;;
16346;SDS011;8283;48.504;13.734;2024-01-07T02:45:15;2.95;;;2.20;;
16346;SDS011;8283;48.504;13.734;2024-01-07T02:47:34;1.95;;;1.50;;
16346;SDS011;8283;48.504;13.734;2024-01-07T02:49:53;2.00;;;1.45;;
16346;SDS011;8283;48.504;13.734;2024-01-07T02:52:13;1.98;;;1.60;;
16346;SDS011;8283;48.504;13.734;2024-01-07T02:54:32;1.75;;;1.27;;
16346;SDS011;8283;48.504;13.734;2024-01-07T02:56:52;1.60;;;1.30;;
16346;SDS011;8283;48.504;13.734;2024-01-07T02:59:11;1.48;;;1.10;;
16346;SDS011;8283;48.504;13.734;2024-01-07T03:01:31;1.23;;;0.90;;
16346;SDS011;8283;48.504;13.734;2024-01-07T03:03:50;0.85;;;0.77;;
16346;SDS011;8283;48.504;13.734;2024-01-07T03:06:09;0.93;;;0.90;;
16346;SDS011;8283;48.504;13.734;2024-01-07T03:08:28;0.90;;;0.73;;
16346;SDS011;8283;48.504;13.734;2024-01-07T03:10:47;1.00;;;0.90;;
16346;SDS011;8283;48.504;13.734;2024-01-07T03:13:07;0.95;;;0.88;;
16346;SDS011;8283;48.504;13.734;2024-01-07T03:15:26;1.33;;;0.70;;
16346;SDS011;8283;48.504;13.734;2024-01-07T03:17:45;1.30;;;0.90;;
16346;SDS011;8283;48.504;13.734;2024-01-07T03:20:05;1.27;;;0.90;;
16346;SDS011;8283;48.504;13.734;2024-01-07T03:22:25;0.98;;;0.73;;
16346;SDS011;8283;48.504;13.734;2024-01-07T03:24:44;1.02;;;0.73;;
16346;SDS011;8283;48.504;13.734;2024-01-07T03:27:03;1.63;;;1.13;;
16346;SDS011;8283;48.504;13.734;2024-01-07T03:29:23;1.10;;;0.60;;
16346;SDS011;8283;48.504;13.734;2024-01-07T03:31:42;2.90;;;0.80;;
16346;SDS011;8283;48.504;13.734;2024-01-07T03:34:02;0.80;;;0.63;;
16346;SDS011;8283;48.504;13.734;2024-01-07T03:36:21;1.75;;;0.95;;
16346;SDS011;8283;48.504;13.734;2024-01-07T03:38:41;1.30;;;0.90;;
16346;SDS011;8283;48.504;13.734;2024-01-07T03:41:00;0.70;;;0.70;;
16346;SDS011;8283;48.504;13.734;2024-01-07T03:43:19;1.15;;;0.68;;
16346;SDS011;8283;48.504;13.734;2024-01-07T03:45:38;0.63;;;0.63;;
16346;SDS011;8283;48.504;13.734;2024-01-07T03:47:58;0.80;;;0.70;;
16346;SDS011;8283;48.504;13.734;2024-01-07T03:50:17;0.88;;;0.70;;
16346;SDS011;8283;48.504;13.734;2024-01-07T03:52:37;1.08;;;0.70;;
16346;SDS011;8283;48.504;13.734;2024-01-07T03:54:56;0.95;;;0.50;;
16346;SDS011;8283;48.504;13.734;2024-01-07T03:57:16;0.65;;;0.45;;
16346;SDS011;8283;48.504;13.734;2024-01-07T03:59:35;0.77;;;0.50;;
16346;SDS011;8283;48.504;13.734;2024-01-07T04:01:55;0.30;;;0.30;;
16346;SDS011;8283;48.504;13.734;2024-01-07T04:04:15;0.57;;;0.55;;
16346;SDS011;8283;48.504;13.734;2024-01-07T04:06:35;0.52;;;0.52;;
16346;SDS011;8283;48.504;13.734;2024-01-07T04:08:54;0.28;;;0.28;;
16346;SDS011;8283;48.504;13.734;2024-01-07T04:11:13;0.30;;;0.30;;
16346;SDS011;8283;48.504;13.734;2024-01-07T04:13:32;0.75;;;0.60;;
16346;SDS011;8283;48.504;13.734;2024-01-07T04:15:52;0.73;;;0.43;;
16346;SDS011;8283;48.504;13.734;2024-01-07T04:18:11;0.63;;;0.50;;
16346;SDS011;8283;48.504;13.734;2024-01-07T04:20:31;0.40;;;0.40;;
16346;SDS011;8283;48.504;13.734;2024-01-07T04:22:50;0.52;;;0.38;;
16346;SDS011;8283;48.504;13.734;2024-01-07T04:25:10;0.50;;;0.50;;
16346;SDS011;8283;48.504;13.734;2024-01-07T04:27:30;0.40;;;0.30;;
16346;SDS011;8283;48.504;13.734;2024-01-07T04:29:49;0.52;;;0.40;;
16346;SDS011;8283;48.504;13.734;2024-01-07T04:32:08;0.30;;;0.30;;
16346;SDS011;8283;48.504;13.734;2024-01-07T04:34:27;1.63;;;0.40;;
16346;SDS011;8283;48.504;13.734;2024-01-07T04:36:46;0.43;;;0.43;;
16346;SDS011;8283;48.504;13.734;2024-01-07T04:39:06;0.43;;;0.40;;
16346;SDS011;8283;48.504;13.734;2024-01-07T04:41:25;1.00;;;0.55;;
16346;SDS011;8283;48.504;13.734;2024-01-07T04:43:45;0.40;;;0.40;;
16346;SDS011;8283;48.504;13.734;2024-01-07T04:46:04;0.40;;;0.40;;
16346;SDS011;8283;48.504;13.734;2024-01-07T04:48:24;0.40;;;0.40;;
16346;SDS011;8283;48.504;13.734;2024-01-07T04:50:44;0.30;;;0.30;;
16346;SDS011;8283;48.504;13.734;2024-01-07T04:53:03;0.50;;;0.50;;
16346;SDS011;8283;48.504;13.734;2024-01-07T04:55:23;0.40;;;0.40;;
16346;SDS011;8283;48.504;13.734;2024-01-07T04:57:42;0.40;;;0.40;;
16346;SDS011;8283;48.504;13.734;2024-01-07T05:00:02;1.80;;;0.50;;
16346;SDS011;8283;48.504;13.734;2024-01-07T05:02:22;0.40;;;0.40;;
16346;SDS011;8283;48.504;13.734;2024-01-07T05:04:42;0.52;;;0.45;;
16346;SDS011;8283;48.504;13.734;2024-01-07T05:07:02;0.50;;;0.50;;
16346;SDS011;8283;48.504;13.734;2024-01-07T05:09:22;0.40;;;0.40;;
16346;SDS011;8283;48.504;13.734;2024-01-07T05:11:42;0.32;;;0.30;;
16346;SDS011;8283;48.504;13.734;2024-01-07T05:14:01;0.98;;;0.65;;
16346;SDS011;8283;48.504;13.734;2024-01-07T05:16:21;0.28;;;0.28;;
16346;SDS011;8283;48.504;13.734;2024-01-07T05:18:40;0.80;;;0.47;;
16346;SDS011;8283;48.504;13.734;2024-01-07T05:20:59;0.40;;;0.40;;
16346;SDS011;8283;48.504;13.734;2024-01-07T05:23:18;0.80;;;0.40;;
16346;SDS011;8283;48.504;13.734;2024-01-07T05:25:38;0.85;;;0.50;;
16346;SDS011;8283;48.504;13.734;2024-01-07T05:27:57;0.70;;;0.60;;
16346;SDS011;8283;48.504;13.734;2024-01-07T05:30:16;0.35;;;0.35;;
16346;SDS011;8283;48.504;13.734;2024-01-07T05:32:35;0.77;;;0.38;;
16346;SDS011;8283;48.504;13.734;2024-01-07T05:34:55;0.45;;;0.43;;
16346;SDS011;8283;48.504;13.734;2024-01-07T05:37:14;0.40;;;0.40;;
16346;SDS011;8283;48.504;13.734;2024-01-07T05:39:34;0.50;;;0.45;;
16346;SDS011;8283;48.504;13.734;2024-01-07T05:41:53;0.73;;;0.55;;
16346;SDS011;8283;48.504;13.734;2024-01-07T05:44:12;0.85;;;0.50;;
16346;SDS011;8283;48.504;13.734;2024-01-07T05:46:31;0.57;;;0.57;;
16346;SDS011;8283;48.504;13.734;2024-01-07T05:48:50;2.03;;;0.63;;
16346;SDS011;8283;48.504;13.734;2024-01-07T05:51:10;0.60;;;0.60;;
16346;SDS011;8283;48.504;13.734;2024-01-07T05:53:30;1.35;;;1.02;;
16346;SDS011;8283;48.504;13.734;2024-01-07T05:55:49;2.17;;;0.98;;
16346;SDS011;8283;48.504;13.734;2024-01-07T05:58:08;3.05;;;0.85;;
16346;SDS011;8283;48.504;13.734;2024-01-07T06:00:28;0.88;;;0.60;;
16346;SDS011;8283;48.504;13.734;2024-01-07T06:02:47;1.42;;;0.63;;
16346;SDS011;8283;48.504;13.734;2024-01-07T06:05:07;0.80;;;0.60;;
16346;SDS011;8283;48.504;13.734;2024-01-07T06:07:26;2.20;;;0.50;;
16346;SDS011;8283;48.504;13.734;2024-01-07T06:09:45;0.52;;;0.47;;
16346;SDS011;8283;48.504;13.734;2024-01-07T06:12:04;0.60;;;0.60;;
16346;SDS011;8283;48.504;13.734;2024-01-07T06:14:23;1.05;;;0.60;;
16346;SDS011;8283;48.504;13.734;2024-01-07T06:16:43;1.13;;;0.75;;
16346;SDS011;8283;48.504;13.734;2024-01-07T06:19:02;0.40;;;0.40;;
16346;SDS011;8283;48.504;13.734;2024-01-07T06:21:22;0.60;;;0.50;;
16346;SDS011;8283;48.504;13.734;2024-01-07T06:23:41;0.68;;;0.57;;
16346;SDS011;8283;48.504;13.734;2024-01-07T06:26:02;0.90;;;0.60;;
16346;SDS011;8283;48.504;13.734;2024-01-07T06:28:22;1.92;;;0.70;;
16346;SDS011;8283;48.504;13.734;2024-01-07T06:30:41;1.00;;;0.70;;
16346;SDS011;8283;48.504;13.734;2024-01-07T06:33:01;1.50;;;0.60;;
16346;SDS011;8283;48.504;13.734;2024-01-07T06:35:20;0.70;;;0.68;;
16346;SDS011;8283;48.504;13.734;2024-01-07T06:37:40;0.43;;;0.43;;
16346;SDS011;8283;48.504;13.734;2024-01-07T06:39:59;1.35;;;0.80;;
16346;SDS011;8283;48.504;13.734;2024-01-07T06:42:19;1.65;;;0.70;;
16346;SDS011;8283;48.504;13.734;2024-01-07T06:44:38;1.13;;;0.70;;
16346;SDS011;8283;48.504;13.734;2024-01-07T06:46:57;1.10;;;0.68;;
16346;SDS011;8283;48.504;13.734;2024-01-07T06:49:16;1.45;;;0.60;;
16346;SDS011;8283;48.504;13.734;2024-01-07T06:51:37;2.00;;;0.75;;
16346;SDS011;8283;48.504;13.734;2024-01-07T06:53:57;0.70;;;0.50;;
16346;SDS011;8283;48.504;13.734;2024-01-07T06:56:16;1.40;;;0.80;;
16346;SDS011;8283;48.504;13.734;2024-01-07T06:58:35;0.80;;;0.55;;
16346;SDS011;8283;48.504;13.734;2024-01-07T07:00:55;0.70;;;0.70;;
16346;SDS011;8283;48.504;13.734;2024-01-07T07:03:15;1.30;;;0.73;;
16346;SDS011;8283;48.504;13.734;2024-01-07T07:05:34;1.23;;;0.70;;
16346;SDS011;8283;48.504;13.734;2024-01-07T07:07:53;0.60;;;0.43;;
16346;SDS011;8283;48.504;13.734;2024-01-07T07:10:12;0.80;;;0.70;;
16346;SDS011;8283;48.504;13.734;2024-01-07T07:12:31;0.82;;;0.65;;
16346;SDS011;8283;48.504;13.734;2024-01-07T07:14:51;0.68;;;0.68;;
16346;SDS011;8283;48.504;13.734;2024-01-07T07:17:10;0.68;;;0.65;;
16346;SDS011;8283;48.504;13.734;2024-01-07T07:19:30;1.15;;;0.60;;
16346;SDS011;8283;48.504;13.734;2024-01-07T07:21:49;3.53;;;1.63;;
16346;SDS011;8283;48.504;13.734;2024-01-07T07:24:08;1.83;;;0.80;;
16346;SDS011;8283;48.504;13.734;2024-01-07T07:26:28;1.23;;;0.90;;
16346;SDS011;8283;48.504;13.734;2024-01-07T07:28:48;1.40;;;0.80;;
16346;SDS011;8283;48.504;13.734;2024-01-07T07:31:07;0.80;;;0.70;;
16346;SDS011;8283;48.504;13.734;2024-01-07T07:33:26;1.10;;;0.80;;
16346;SDS011;8283;48.504;13.734;2024-01-07T07:35:46;1.10;;;0.98;;
16346;SDS011;8283;48.504;13.734;2024-01-07T07:38:06;1.52;;;0.90;;
16346;SDS011;8283;48.504;13.734;2024-01-07T07:40:25;1.40;;;1.00;;
16346;SDS011;8283;48.504;13.734;2024-01-07T07:42:45;1.95;;;1.00;;
16346;SDS011;8283;48.504;13.734;2024-01-07T07:45:04;1.33;;;0.85;;
16346;SDS011;8283;48.504;13.734;2024-01-07T07:47:23;1.13;;;0.80;;
16346;SDS011;8283;48.504;13.734;2024-01-07T07:49:43;2.08;;;1.20;;
16346;SDS011;8283;48.504;13.734;2024-01-07T07:52:02;2.30;;;1.17;;
16346;SDS011;8283;48.504;13.734;2024-01-07T07:54:22;1.50;;;1.10;;
16346;SDS011;8283;48.504;13.734;2024-01-07T07:56:41;1.67;;;1.02;;
16346;SDS011;8283;48.504;13.734;2024-01-07T07:59:04;1.48;;;1.13;;
16346;SDS011;8283;48.504;13.734;2024-01-07T08:01:23;1.27;;;1.00;;
16346;SDS011;8283;48.504;13.734;2024-01-07T08:03:43;1.45;;;0.98;;
16346;SDS011;8283;48.504;13.734;2024-01-07T08:06:02;1.60;;;1.02;;
16346;SDS011;8283;48.504;13.734;2024-01-07T08:08:22;1.77;;;0.90;;
16346;SDS011;8283;48.504;13.734;2024-01-07T08:10:41;2.13;;;1.10;;
16346;SDS011;8283;48.504;13.734;2024-01-07T08:13:01;1.83;;;1.40;;
16346;SDS011;8283;48.504;13.734;2024-01-07T08:15:21;2.30;;;1.02;;
16346;SDS011;8283;48.504;13.734;2024-01-07T08:17:40;1.20;;;1.08;;
16346;SDS011;8283;48.504;13.734;2024-01-07T08:19:59;2.47;;;1.70;;
16346;SDS011;8283;48.504;13.734;2024-01-07T08:22:20;3.35;;;1.65;;
16346;SDS011;8283;48.504;13.734;2024-01-07T08:24:39;2.35;;;1.73;;
16346;SDS011;8283;48.504;13.734;2024-01-07T08:26:59;1.98;;;1.63;;
16346;SDS011;8283;48.504;13.734;2024-01-07T08:29:18;2.42;;;1.70;;
16346;SDS011;8283;48.504;13.734;2024-01-07T08:31:37;1.77;;;1.50;;
16346;SDS011;8283;48.504;13.734;2024-01-07T08:33:58;3.10;;;1.65;;
16346;SDS011;8283;48.504;13.734;2024-01-07T08:36:18;2.75;;;1.65;;
16346;SDS011;8283;48.504;13.734;2024-01-07T08:38:37;3.03;;;1.73;;
16346;SDS011;8283;48.504;13.734;2024-01-07T08:40:56;3.08;;;1.83;;
16346;SDS011;8283;48.504;13.734;2024-01-07T08:43:15;2.17;;;1.60;;
16346;SDS011;8283;48.504;13.734;2024-01-07T08:45:35;3.83;;;1.98;;
16346;SDS011;8283;48.504;13.734;2024-01-07T08:47:56;2.58;;;2.00;;
16346;SDS011;8283;48.504;13.734;2024-01-07T08:50:15;1.73;;;1.60;;
16346;SDS011;8283;48.504;13.734;2024-01-07T08:52:34;1.90;;;1.35;;
16346;SDS011;8283;48.504;13.734;2024-01-07T08:54:54;2.40;;;1.60;;
16346;SDS011;8283;48.504;13.734;2024-01-07T08:57:14;2.53;;;1.73;;
16346;SDS011;8283;48.504;13.734;2024-01-07T08:59:33;1.73;;;1.38;;
16346;SDS011;8283;48.504;13.734;2024-01-07T09:01:52;2.17;;;1.40;;
16346;SDS011;8283;48.504;13.734;2024-01-07T09:04:11;2.38;;;1.45;;
16346;SDS011;8283;48.504;13.734;2024-01-07T09:06:31;2.90;;;1.70;;
16346;SDS011;8283;48.504;13.734;2024-01-07T09:08:50;2.88;;;1.88;;
16346;SDS011;8283;48.504;13.734;2024-01-07T09:11:10;2.53;;;1.55;;
16346;SDS011;8283;48.504;13.734;2024-01-07T09:13:31;1.52;;;1.20;;
16346;SDS011;8283;48.504;13.734;2024-01-07T09:15:50;2.45;;;1.33;;
16346;SDS011;8283;48.504;13.734;2024-01-07T09:18:10;2.35;;;1.45;;
16346;SDS011;8283;48.504;13.734;2024-01-07T09:20:30;2.78;;;1.40;;
16346;SDS011;8283;48.504;13.734;2024-01-07T09:22:49;1.55;;;1.30;;
16346;SDS011;8283;48.504;13.734;2024-01-07T09:25:09;1.90;;;1.23;;
16346;SDS011;8283;48.504;13.734;2024-01-07T09:27:29;1.48;;;1.20;;
16346;SDS011;8283;48.504;13.734;2024-01-07T09:29:49;1.85;;;1.17;;
16346;SDS011;8283;48.504;13.734;2024-01-07T09:32:09;1.33;;;1.02;;
16346;SDS011;8283;48.504;13.734;2024-01-07T09:34:28;1.65;;;1.00;;
16346;SDS011;8283;48.504;13.734;2024-01-07T09:36:48;1.98;;;1.25;;
16346;SDS011;8283;48.504;13.734;2024-01-07T09:39:07;1.58;;;1.20;;
16346;SDS011;8283;48.504;13.734;2024-01-07T09:41:28;2.95;;;1.35;;
16346;SDS011;8283;48.504;13.734;2024-01-07T09:43:47;1.77;;;1.23;;
16346;SDS011;8283;48.504;13.734;2024-01-07T09:46:07;2.75;;;1.45;;
16346;SDS011;8283;48.504;13.734;2024-01-07T09:48:26;2.75;;;1.10;;
16346;SDS011;8283;48.504;13.734;2024-01-07T09:50:45;1.85;;;1.27;;
16346;SDS011;8283;48.504;13.734;2024-01-07T09:53:05;1.88;;;1.20;;
16346;SDS011;8283;48.504;13.734;2024-01-07T09:55:26;2.65;;;1.17;;
16346;SDS011;8283;48.504;13.734;2024-01-07T09:58:06;2.63;;;1.38;;
16346;SDS011;8283;48.504;13.734;2024-01-07T10:00:27;1.67;;;0.90;;
16346;SDS011;8283;48.504;13.734;2024-01-07T10:02:47;2.38;;;1.30;;
16346;SDS011;8283;48.504;13.734;2024-01-07T10:05:07;2.00;;;1.15;;
16346;SDS011;8283;48.504;13.734;2024-01-07T10:07:26;3.20;;;1.40;;
16346;SDS011;8283;48.504;13.734;2024-01-07T10:09:46;2.15;;;1.25;;
16346;SDS011;8283;48.504;13.734;2024-01-07T10:12:05;2.40;;;1.45;;
16346;SDS011;8283;48.504;13.734;2024-01-07T10:14:25;2.00;;;1.20;;
16346;SDS011;8283;48.504;13.734;2024-01-07T10:16:45;2.92;;;1.35;;
16346;SDS011;8283;48.504;13.734;2024-01-07T10:19:04;2.45;;;1.58;;
16346;SDS011;8283;48.504;13.734;2024-01-07T10:21:24;2.67;;;1.48;;
16346;SDS011;8283;48.504;13.734;2024-01-07T10:23:43;2.38;;;1.30;;
16346;SDS011;8283;48.504;13.734;2024-01-07T10:26:03;2.17;;;1.40;;
16346;SDS011;8283;48.504;13.734;2024-01-07T10:28:22;2.53;;;1.38;;
16346;SDS011;8283;48.504;13.734;2024-01-07T10:30:47;2.35;;;1.70;;
16346;SDS011;8283;48.504;13.734;2024-01-07T10:33:07;3.10;;;2.13;;
16346;SDS011;8283;48.504;13.734;2024-01-07T10:35:32;2.80;;;1.90;;
16346;SDS011;8283;48.504;13.734;2024-01-07T10:37:53;2.63;;;1.90;;
16346;SDS011;8283;48.504;13.734;2024-01-07T10:40:12;1.88;;;1.50;;
16346;SDS011;8283;48.504;13.734;2024-01-07T10:42:32;3.40;;;1.95;;
16346;SDS011;8283;48.504;13.734;2024-01-07T10:44:53;3.20;;;1.58;;
16346;SDS011;8283;48.504;13.734;2024-01-07T10:47:12;2.13;;;1.83;;
16346;SDS011;8283;48.504;13.734;2024-01-07T10:49:33;2.78;;;1.88;;
16346;SDS011;8283;48.504;13.734;2024-01-07T10:52:07;1.83;;;1.55;;
16346;SDS011;8283;48.504;13.734;2024-01-07T10:54:28;3.25;;;2.08;;
16346;SDS011;8283;48.504;13.734;2024-01-07T10:56:48;3.20;;;2.13;;
16346;SDS011;8283;48.504;13.734;2024-01-07T10:59:12;2.22;;;1.80;;
16346;SDS011;8283;48.504;13.734;2024-01-07T11:01:32;2.00;;;1.63;;
16346;SDS011;8283;48.504;13.734;2024-01-07T11:06:27;2.55;;;1.85;;
16346;SDS011;8283;48.504;13.734;2024-01-07T11:09:14;2.40;;;1.80;;
16346;SDS011;8283;48.504;13.734;2024-01-07T11:11:55;2.90;;;2.20;;
16346;SDS011;8283;48.504;13.734;2024-01-07T11:14:34;2.75;;;2.10;;
16346;SDS011;8283;48.504;13.734;2024-01-07T11:17:03;2.55;;;1.98;;
16346;SDS011;8283;48.504;13.734;2024-01-07T11:19:23;3.22;;;1.88;;
16346;SDS011;8283;48.504;13.734;2024-01-07T11:21:43;2.78;;;1.63;;
16346;SDS011;8283;48.504;13.734;2024-01-07T11:24:02;3.58;;;2.03;;
16346;SDS011;8283;48.504;13.734;2024-01-07T11:26:22;2.47;;;1.85;;
16346;SDS011;8283;48.504;13.734;2024-01-07T11:31:15;3.00;;;2.00;;
16346;SDS011;8283;48.504;13.734;2024-01-07T11:33:36;3.15;;;1.90;;
16346;SDS011;8283;48.504;13.734;2024-01-07T11:35:56;2.88;;;1.92;;
16346;SDS011;8283;48.504;13.734;2024-01-07T11:38:18;2.83;;;1.75;;
16346;SDS011;8283;48.504;13.734;2024-01-07T11:40:37;2.58;;;2.03;;
16346;SDS011;8283;48.504;13.734;2024-01-07T11:42:56;2.20;;;1.65;;
16346;SDS011;8283;48.504;13.734;2024-01-07T11:45:15;3.75;;;2.05;;
16346;SDS011;8283;48.504;13.734;2024-01-07T11:47:35;2.50;;;1.83;;
16346;SDS011;8283;48.504;13.734;2024-01-07T11:49:54;3.30;;;2.10;;
16346;SDS011;8283;48.504;13.734;2024-01-07T11:52:14;4.18;;;2.58;;
16346;SDS011;8283;48.504;13.734;2024-01-07T11:54:34;3.65;;;2.35;;
16346;SDS011;8283;48.504;13.734;2024-01-07T11:56:53;2.80;;;1.80;;
16346;SDS011;8283;48.504;13.734;2024-01-07T11:59:13;4.32;;;2.33;;
16346;SDS011;8283;48.504;13.734;2024-01-07T12:01:32;2.83;;;2.10;;
16346;SDS011;8283;48.504;13.734;2024-01-07T12:03:51;3.13;;;2.30;;
16346;SDS011;8283;48.504;13.734;2024-01-07T12:06:11;3.33;;;2.15;;
16346;SDS011;8283;48.504;13.734;2024-01-07T12:08:34;4.82;;;2.20;;
16346;SDS011;8283;48.504;13.734;2024-01-07T12:10:54;2.72;;;2.28;;
16346;SDS011;8283;48.504;13.734;2024-01-07T12:13:13;4.00;;;2.78;;
16346;SDS011;8283;48.504;13.734;2024-01-07T12:15:33;2.97;;;2.25;;
16346;SDS011;8283;48.504;13.734;2024-01-07T12:17:56;2.97;;;2.33;;
16346;SDS011;8283;48.504;13.734;2024-01-07T12:20:16;3.38;;;2.40;;
16346;SDS011;8283;48.504;13.734;2024-01-07T12:22:38;4.53;;;2.47;;
16346;SDS011;8283;48.504;13.734;2024-01-07T12:25:07;2.70;;;2.10;;
16346;SDS011;8283;48.504;13.734;2024-01-07T12:27:27;2.10;;;1.85;;
16346;SDS011;8283;48.504;13.734;2024-01-07T12:29:53;3.28;;;2.22;;
16346;SDS011;8283;48.504;13.734;2024-01-07T12:32:17;4.53;;;2.40;;
16346;SDS011;8283;48.504;13.734;2024-01-07T12:34:36;3.60;;;2.30;;
16346;SDS011;8283;48.504;13.734;2024-01-07T12:36:55;3.30;;;2.25;;
16346;SDS011;8283;48.504;13.734;2024-01-07T12:39:15;5.07;;;2.70;;
16346;SDS011;8283;48.504;13.734;2024-01-07T12:41:34;3.72;;;2.58;;
16346;SDS011;8283;48.504;13.734;2024-01-07T12:43:53;3.63;;;2.15;;
16346;SDS011;8283;48.504;13.734;2024-01-07T12:46:12;4.43;;;2.55;;
16346;SDS011;8283;48.504;13.734;2024-01-07T12:48:32;3.10;;;2.40;;
16346;SDS011;8283;48.504;13.734;2024-01-07T12:50:51;4.90;;;2.75;;
16346;SDS011;8283;48.504;13.734;2024-01-07T12:53:11;2.75;;;2.15;;
16346;SDS011;8283;48.504;13.734;2024-01-07T12:55:31;3.10;;;2.10;;
16346;SDS011;8283;48.504;13.734;2024-01-07T12:57:51;3.85;;;2.60;;
16346;SDS011;8283;48.504;13.734;2024-01-07T13:00:10;2.75;;;2.20;;
16346;SDS011;8283;48.504;13.734;2024-01-07T13:02:31;3.83;;;2.50;;
16346;SDS011;8283;48.504;13.734;2024-01-07T13:04:50;3.47;;;2.25;;
16346;SDS011;8283;48.504;13.734;2024-01-07T13:07:10;4.75;;;2.78;;
16346;SDS011;8283;48.504;13.734;2024-01-07T13:09:30;3.22;;;2.33;;
16346;SDS011;8283;48.504;13.734;2024-01-07T13:11:50;3.17;;;2.28;;
16346;SDS011;8283;48.504;13.734;2024-01-07T13:14:10;3.95;;;2.47;;
16346;SDS011;8283;48.504;13.734;2024-01-07T13:16:29;2.45;;;1.90;;
16346;SDS011;8283;48.504;13.734;2024-01-07T13:18:49;3.30;;;2.08;;
16346;SDS011;8283;48.504;13.734;2024-01-07T13:21:08;4.28;;;3.10;;
16346;SDS011;8283;48.504;13.734;2024-01-07T13:23:27;5.38;;;3.17;;
16346;SDS011;8283;48.504;13.734;2024-01-07T13:25:47;4.70;;;3.17;;
16346;SDS011;8283;48.504;13.734;2024-01-07T13:28:07;4.85;;;3.17;;
16346;SDS011;8283;48.504;13.734;2024-01-07T13:30:29;4.45;;;2.80;;
16346;SDS011;8283;48.504;13.734;2024-01-07T13:32:48;3.53;;;2.70;;
16346;SDS011;8283;48.504;13.734;2024-01-07T13:35:08;4.80;;;2.83;;
16346;SDS011;8283;48.504;13.734;2024-01-07T13:37:29;3.90;;;2.83;;
16346;SDS011;8283;48.504;13.734;2024-01-07T13:39:49;6.07;;;3.70;;
16346;SDS011;8283;48.504;13.734;2024-01-07T13:42:09;5.78;;;3.30;;
16346;SDS011;8283;48.504;13.734;2024-01-07T13:44:29;2.80;;;2.42;;
16346;SDS011;8283;48.504;13.734;2024-01-07T13:46:49;4.20;;;2.58;;
16346;SDS011;8283;48.504;13.734;2024-01-07T13:49:11;4.45;;;2.85;;
16346;SDS011;8283;48.504;13.734;2024-01-07T13:51:30;3.50;;;2.58;;
16346;SDS011;8283;48.504;13.734;2024-01-07T13:53:50;3.78;;;2.30;;
16346;SDS011;8283;48.504;13.734;2024-01-07T13:56:09;3.38;;;2.33;;
16346;SDS011;8283;48.504;13.734;2024-01-07T13:58:29;5.60;;;3.10;;
16346;SDS011;8283;48.504;13.734;2024-01-07T14:00:48;3.65;;;2.75;;
16346;SDS011;8283;48.504;13.734;2024-01-07T14:03:08;4.88;;;2.92;;
16346;SDS011;8283;48.504;13.734;2024-01-07T14:05:27;3.03;;;2.30;;
16346;SDS011;8283;48.504;13.734;2024-01-07T14:07:46;3.22;;;2.42;;